Altus, OK

11:16 CST le 26 novembre 2014 (GMT -0600)
Altus Municipal | Change Station
CLOSE
Current Station
Aéroport
Location: Altus,
Altitude: 1434 ft
Stations météo à proximité

Alt. 1434 ft 34.70 °N, 99.34 °W | Updated 21 minutes ago

Ciel dégagé
Ciel dégagé
53 ° F
Paraît 53 ° F
N
15
Vent Variable Vent de Nord

Aujourd'hui
Haut(e) -- | Bas -- ° F
--% Risque de précip.
Hier
Haut(e) -- | Bas -- ° F
Precip. -- pouce
7:21 AM 5:27 PM
Lune montante, 21% visible
Pression 30.26 pouce
Visibilité 10.0 Miles terrestres
Nuages Ciel dégagé
Point de rosée 33 ° F
Humidité 47%
Précipitations 0.00 pouce
Profondeur de la couche neigeuse Non disponible.
UV 3 sur 12
Pollen 4.40 sur 12
Qualité de l'air Non disponible.
Flu Activity Non disponible.
METAR KAXS 261655Z AUTO 35013KT 10SM CLR 12/01 A3026 RMK AO2 T01190008

More Conditions Fewer Conditions

Pression 30.26 pouce
Visibilité 10.0 Miles terrestres
Nuages Ciel dégagé
Point de rosée 33 ° F
Humidité 47%
Précipitations 0.00 pouce
Profondeur de la couche neigeuse Non disponible.
UV 3 sur 12
Pollen 4.40 sur 12
Qualité de l'air Non disponible.
Flu Activity Non disponible.
METAR KAXS 261655Z AUTO 35013KT 10SM CLR 12/01 A3026 RMK AO2 T01190008

More Conditions Fewer Conditions

10-Day Weather Forecast

Almanac

Astronomie

Nov. 26, 2014 Lever Coucher
Temps réel
Crépuscule civil
Crépuscule nautique
Crépuscule astronomique
Lune
Durée de lumière visible
Longueur du jour
Tomorrow will be .
, % of the Moon is Illuminated

Extrêmes aujourd'hui

State Highs State Lows

Community

WunderPhotos

Upload Photos

1,773,800 Photos téléchargées !

WunderBlogs® & News

Nearby

Qualité de l'air

  Qualité de l'air Indice de la qualité de l'air Polluant
Not available.

Épaisseur de neige

Station Depth Altitude

Activité sismique

Ville Distance Mag. Time & Date
Minimum magnitude displayed is 2.5.

Températures des eaux côtières

Lieu Température

Stations météo à proximité